Time;durP1;ratioP1;P1;durP2;ratioP2;P2;SDS_P1;SDS_P2;PMS_P1;PMS_P2;Temp;Humidity;BMP_temperature;BMP_pressure;BME280_temperature;BME280_humidity;BME280_pressure;Samples;Min_cycle;Max_cycle;Signal;HPM_P1;HPM_P2
2023/05/24 00:01:45;;;;;;;0.60;0.40;;;23.40;48.30;;;;;;6196406;28;20336;-55
2023/05/24 00:04:48;;;;;;;1.05;0.50;;;23.30;48.00;;;;;;6204024;28;20042;-56
2023/05/24 00:07:50;;;;;;;0.40;0.30;;;23.20;47.90;;;;;;6198722;28;20536;-56
2023/05/24 00:10:53;;;;;;;0.30;0.25;;;23.30;47.30;;;;;;6192307;28;20042;-55
2023/05/24 00:13:55;;;;;;;1.00;0.38;;;23.30;47.70;;;;;;6196861;28;20031;-54
2023/05/24 00:17:03;;;;;;;0.68;0.40;;;23.20;47.80;;;;;;6202448;28;20215;-56
2023/05/24 00:20:06;;;;;;;0.75;0.40;;;23.20;47.80;;;;;;6191000;28;20038;-56
2023/05/24 00:23:09;;;;;;;0.68;0.50;;;23.20;47.50;;;;;;6184202;28;20077;-56
2023/05/24 00:26:12;;;;;;;0.30;0.30;;;23.20;47.50;;;;;;6189052;28;20034;-56
2023/05/24 00:29:17;;;;;;;0.50;0.40;;;22.80;47.50;;;;;;6186503;28;20513;-56
2023/05/24 00:32:19;;;;;;;0.75;0.40;;;23.20;47.60;;;;;;6187791;28;20701;-55
2023/05/24 00:35:23;;;;;;;0.63;0.30;;;23.10;47.40;;;;;;6194673;28;20038;-56
2023/05/24 00:38:25;;;;;;;0.70;0.40;;;23.20;47.50;;;;;;6191959;28;20046;-55
2023/05/24 00:41:27;;;;;;;0.68;0.40;;;23.10;47.20;;;;;;6188192;28;20046;-55
2023/05/24 00:44:29;;;;;;;0.95;0.75;;;23.10;47.30;;;;;;6191099;28;20065;-57
2023/05/24 00:47:30;;;;;;;0.63;0.40;;;23.20;47.20;;;;;;6188209;28;20077;-56
2023/05/24 00:50:32;;;;;;;1.05;0.50;;;23.20;47.20;;;;;;6191878;28;20537;-55
2023/05/24 00:53:36;;;;;;;0.60;0.40;;;23.10;46.90;;;;;;6190666;28;20038;-55
2023/05/24 00:56:37;;;;;;;0.32;0.28;;;22.70;46.60;;;;;;6186305;28;20096;-56
2023/05/24 00:59:39;;;;;;;;;;;22.90;47.00;;;;;;6185177;28;20101;-57
2023/05/24 01:02:40;;;;;;;0.20;0.10;;;23.20;47.70;;;;;;6229536;23;19975;-51
2023/05/24 01:05:42;;;;;;;0.40;0.30;;;23.00;47.40;;;;;;6210706;28;20425;-51
2023/05/24 01:09:00;;;;;;;0.63;0.30;;;23.10;47.30;;;;;;6204578;28;20033;-54
2023/05/24 01:12:18;;;;;;;0.22;0.20;;;23.00;46.90;;;;;;6208932;28;20049;-53
2023/05/24 01:15:28;;;;;;;0.70;0.40;;;23.10;46.90;;;;;;6209571;28;20045;-52
2023/05/24 01:18:32;;;;;;;0.30;0.30;;;23.00;46.80;;;;;;6213375;28;20038;-50
2023/05/24 01:21:48;;;;;;;1.17;0.40;;;23.10;47.10;;;;;;6212985;28;20041;-49
2023/05/24 01:25:04;;;;;;;0.55;0.30;;;22.90;46.70;;;;;;6212423;28;20045;-51
2023/05/24 01:28:08;;;;;;;0.47;0.38;;;22.90;46.90;;;;;;6211945;28;20049;-49
2023/05/24 01:31:14;;;;;;;0.40;0.30;;;23.00;46.70;;;;;;6212584;28;20041;-47
2023/05/24 01:34:15;;;;;;;0.40;0.35;;;22.90;46.70;;;;;;6213995;28;20045;-46
2023/05/24 01:37:17;;;;;;;;;;;22.80;46.80;;;;;;6213851;28;20041;-50
2023/05/24 01:40:18;;;;;;;0.40;0.30;;;23.10;47.20;;;;;;6213357;28;20343;-47
2023/05/24 01:43:29;;;;;;;0.40;0.20;;;22.90;46.90;;;;;;6213773;28;20446;-50
2023/05/24 01:46:36;;;;;;;0.40;0.20;;;22.80;46.70;;;;;;6215721;28;20546;-46
2023/05/24 01:49:41;;;;;;;0.70;0.40;;;23.70;46.90;;;;;;6216815;28;20034;-51
2023/05/24 01:52:45;;;;;;;0.60;0.50;;;22.80;46.40;;;;;;6215553;28;20042;-47
2023/05/24 01:55:50;;;;;;;0.50;0.32;;;22.60;60.80;;;;;;6213404;28;20042;-47
2023/05/24 01:58:55;;;;;;;0.50;0.40;;;22.80;46.30;;;;;;6191909;28;20512;-47
2023/05/24 02:01:57;;;;;;;0.38;0.28;;;22.40;46.00;;;;;;6192709;28;20335;-47
2023/05/24 02:04:59;;;;;;;0.43;0.20;;;22.90;46.70;;;;;;6192383;28;20073;-48
2023/05/24 02:08:01;;;;;;;0.40;0.30;;;22.40;45.90;;;;;;6193152;28;20042;-49
2023/05/24 02:11:03;;;;;;;0.63;0.35;;;22.70;46.20;;;;;;6193184;28;20066;-46
2023/05/24 02:14:05;;;;;;;0.35;0.30;;;22.70;45.60;;;;;;6192429;28;20069;-49
2023/05/24 02:17:08;;;;;;;0.40;0.30;;;22.50;45.50;;;;;;6191402;28;20058;-45
2023/05/24 02:20:12;;;;;;;0.40;0.30;;;22.70;45.50;;;;;;6192474;28;20038;-49
2023/05/24 02:23:13;;;;;;;0.40;0.30;;;22.80;45.40;;;;;;6190109;28;20042;-46
2023/05/24 02:26:16;;;;;;;1.10;0.40;;;22.70;45.40;;;;;;6191615;28;20500;-47
2023/05/24 02:29:18;;;;;;;0.73;0.47;;;22.70;45.50;;;;;;6192426;28;20092;-46
2023/05/24 02:32:20;;;;;;;0.32;0.22;;;22.70;45.20;;;;;;6191639;28;20045;-46
2023/05/24 02:35:22;;;;;;;;;;;22.60;45.20;;;;;;6193126;28;20049;-48
2023/05/24 02:38:23;;;;;;;0.40;0.32;;;22.00;44.30;;;;;;6192918;28;19930;-47
2023/05/24 02:41:25;;;;;;;0.20;0.20;;;22.50;45.20;;;;;;6191843;28;20073;-48
2023/05/24 02:44:27;;;;;;;0.57;0.30;;;22.90;45.00;;;;;;6192141;28;20041;-45
2023/05/24 02:47:29;;;;;;;0.20;0.20;;;22.60;44.80;;;;;;6190630;28;20069;-48
2023/05/24 02:50:31;;;;;;;0.60;0.40;;;22.70;44.70;;;;;;6191676;28;20073;-45
2023/05/24 02:53:32;;;;;;;0.30;0.30;;;22.60;44.70;;;;;;6191870;28;20601;-48
2023/05/24 02:56:34;;;;;;;0.50;0.20;;;22.50;44.40;;;;;;6191241;28;20047;-50
2023/05/24 02:59:37;;;;;;;0.60;0.40;;;22.70;44.50;;;;;;6191610;28;20035;-48
2023/05/24 03:02:39;;;;;;;0.40;0.28;;;22.70;44.30;;;;;;6190410;28;20204;-45
2023/05/24 03:05:42;;;;;;;0.47;0.30;;;22.50;44.20;;;;;;6191380;28;20054;-46
2023/05/24 03:08:44;;;;;;;0.40;0.30;;;22.70;44.20;;;;;;6191764;28;20042;-49
2023/05/24 03:11:47;;;;;;;0.52;0.20;;;22.50;44.10;;;;;;6188590;28;20106;-46
2023/05/24 03:14:49;;;;;;;0.57;0.40;;;22.60;43.90;;;;;;6191490;28;20058;-44
2023/05/24 03:17:54;;;;;;;0.40;0.30;;;22.30;43.80;;;;;;6191598;28;20501;-45
2023/05/24 03:20:56;;;;;;;0.50;0.30;;;22.30;43.80;;;;;;6191706;28;20035;-58
2023/05/24 03:23:57;;;;;;;0.40;0.20;;;22.50;43.90;;;;;;6192585;28;20666;-58
2023/05/24 03:27:03;;;;;;;0.73;0.32;;;22.50;43.60;;;;;;6191302;28;20075;-58
2023/05/24 03:30:06;;;;;;;0.22;0.22;;;22.50;43.70;;;;;;6191024;28;20096;-59
2023/05/24 03:33:15;;;;;;;0.30;0.20;;;22.60;43.60;;;;;;6191485;28;20073;-58
2023/05/24 03:36:19;;;;;;;0.68;0.30;;;22.60;43.90;;;;;;6156181;28;20062;-58
2023/05/24 03:39:21;;;;;;;0.30;0.30;;;22.10;43.60;;;;;;6191265;28;20035;-58
2023/05/24 03:42:32;;;;;;;0.52;0.30;;;22.10;43.60;;;;;;6190343;28;20125;-58
2023/05/24 03:45:34;;;;;;;0.32;0.30;;;22.70;41.10;;;;;;6190606;28;20050;-58
2023/05/24 03:48:41;;;;;;;0.60;0.20;;;22.60;43.60;;;;;;6191269;28;20545;-58
2023/05/24 03:51:47;;;;;;;0.20;0.20;;;22.10;43.20;;;;;;6190891;28;20097;-59
2023/05/24 03:54:49;;;;;;;0.40;0.30;;;22.60;41.50;;;;;;6190673;28;20034;-59
2023/05/24 03:57:51;;;;;;;0.30;0.30;;;22.50;43.30;;;;;;6190518;28;20046;-58
2023/05/24 04:00:53;;;;;;;0.30;0.25;;;22.50;43.30;;;;;;6189652;28;20042;-59
2023/05/24 04:03:55;;;;;;;0.40;0.40;;;22.50;43.10;;;;;;6190615;28;20046;-59
2023/05/24 04:06:59;;;;;;;0.35;0.20;;;22.50;43.10;;;;;;6190191;28;20070;-59
2023/05/24 04:10:03;;;;;;;0.60;0.30;;;22.40;43.10;;;;;;6186926;28;20516;-58
2023/05/24 04:13:05;;;;;;;0.65;0.30;;;22.20;42.80;;;;;;6189140;28;20057;-58
2023/05/24 04:16:12;;;;;;;0.60;0.40;;;22.40;42.90;;;;;;6188594;28;20034;-59
2023/05/24 04:19:14;;;;;;;0.43;0.20;;;22.10;42.70;;;;;;6188926;28;20073;-58
2023/05/24 04:22:19;;;;;;;0.55;0.40;;;22.50;42.80;;;;;;6189253;28;20053;-59
2023/05/24 04:25:22;;;;;;;0.10;0.10;;;23.30;43.30;;;;;;6187850;28;20038;-59
2023/05/24 04:28:25;;;;;;;0.40;0.10;;;22.50;42.70;;;;;;6189423;28;20101;-58
2023/05/24 04:31:29;;;;;;;0.70;0.52;;;22.50;42.80;;;;;;6187999;28;20049;-59
2023/05/24 04:34:32;;;;;;;0.60;0.30;;;22.10;42.50;;;;;;6189152;28;20034;-59
2023/05/24 04:37:35;;;;;;;0.98;0.38;;;21.20;42.00;;;;;;6188478;28;20445;-59
2023/05/24 04:40:38;;;;;;;0.20;0.20;;;22.30;42.40;;;;;;6189258;28;20042;-59
2023/05/24 04:43:42;;;;;;;0.40;0.30;;;22.30;42.60;;;;;;6189741;28;20573;-59
2023/05/24 04:46:44;;;;;;;0.40;0.30;;;22.30;42.50;;;;;;6188858;28;20508;-59
2023/05/24 04:49:46;;;;;;;0.32;0.20;;;22.50;42.70;;;;;;6189992;28;20100;-59
2023/05/24 04:52:47;;;;;;;0.40;0.30;;;22.40;42.40;;;;;;6189560;28;20184;-59
2023/05/24 04:55:49;;;;;;;;;;;22.20;42.50;;;;;;6189481;28;20039;-59
2023/05/24 04:58:53;;;;;;;0.50;0.30;;;22.40;42.80;;;;;;6188057;28;19926;-59
2023/05/24 05:01:56;;;;;;;;;;;21.90;42.60;;;;;;6189434;28;20038;-59
2023/05/24 05:04:57;;;;;;;0.28;0.20;;;22.40;42.90;;;;;;6188678;28;19947;-59
2023/05/24 05:07:58;;;;;;;;;;;22.00;42.80;;;;;;6188861;28;20401;-58
2023/05/24 05:11:00;;;;;;;0.50;0.25;;;22.20;42.90;;;;;;6189008;28;19929;-59
2023/05/24 05:14:02;;;;;;;0.60;0.30;;;22.40;43.30;;;;;;6204550;28;20042;-58
2023/05/24 05:17:04;;;;;;;0.20;0.20;;;22.40;43.20;;;;;;6189337;28;20061;-58
2023/05/24 05:20:07;;;;;;;0.47;0.30;;;22.40;42.90;;;;;;6187221;28;20089;-58
2023/05/24 05:23:08;;;;;;;1.15;0.60;;;22.30;42.80;;;;;;6192652;28;20050;-58
2023/05/24 05:26:10;;;;;;;;;;;22.20;42.70;;;;;;6192815;28;20062;-58
2023/05/24 05:29:11;;;;;;;1.65;0.75;;;22.20;43.00;;;;;;6191867;28;19922;-59
2023/05/24 05:32:13;;;;;;;;;;;22.10;43.00;;;;;;6192447;28;20109;-59
2023/05/24 05:35:15;;;;;;;1.40;0.40;;;22.10;43.30;;;;;;6192689;28;19926;-58
2023/05/24 05:38:16;;;;;;;;;;;22.00;42.80;;;;;;6194029;28;20038;-58
2023/05/24 05:41:18;;;;;;;0.30;0.20;;;22.20;43.80;;;;;;6190134;28;19928;-59
2023/05/24 05:44:19;;;;;;;;;;;22.20;43.10;;;;;;6194018;28;20043;-58
2023/05/24 05:47:21;;;;;;;0.52;0.30;;;20.90;42.50;;;;;;6192814;28;19965;-58
2023/05/24 05:50:23;;;;;;;0.50;0.32;;;21.60;42.80;;;;;;6192267;28;20038;-58
2023/05/24 05:53:25;;;;;;;0.90;0.40;;;22.00;42.50;;;;;;6190620;28;20043;-58
2023/05/24 05:56:27;;;;;;;;;;;21.70;42.20;;;;;;6193234;28;20042;-58
2023/05/24 05:59:29;;;;;;;0.30;0.28;;;22.10;42.50;;;;;;6179174;28;19921;-58
2023/05/24 06:02:31;;;;;;;0.45;0.30;;;22.10;42.40;;;;;;6189146;28;20050;-58
2023/05/24 06:05:33;;;;;;;0.55;0.35;;;21.80;42.00;;;;;;6168021;28;20121;-58
2023/05/24 06:08:35;;;;;;;0.47;0.30;;;20.60;41.50;;;;;;6188306;28;20606;-58
2023/05/24 06:11:38;;;;;;;0.57;0.30;;;21.80;41.90;;;;;;6189959;28;20043;-58
2023/05/24 06:14:40;;;;;;;0.50;0.20;;;21.80;41.60;;;;;;6192874;28;20097;-58
2023/05/24 06:17:42;;;;;;;;;;;22.30;41.60;;;;;;6192524;28;20035;-58
2023/05/24 06:20:44;;;;;;;0.20;0.20;;;22.60;42.40;;;;;;6150313;28;19937;-58
2023/05/24 06:23:47;;;;;;;0.20;0.20;;;22.20;41.60;;;;;;6166664;28;20034;-58
2023/05/24 06:26:51;;;;;;;0.20;0.20;;;22.00;41.60;;;;;;6184943;28;20039;-58
2023/05/24 06:29:53;;;;;;;0.30;0.20;;;22.20;41.50;;;;;;6187757;28;20100;-58
2023/05/24 06:32:55;;;;;;;0.50;0.20;;;22.40;41.50;;;;;;6180439;28;20113;-58
2023/05/24 06:35:57;;;;;;;0.85;0.40;;;22.30;41.20;;;;;;6199097;28;20046;-58
2023/05/24 06:38:59;;;;;;;0.30;0.30;;;22.40;41.10;;;;;;6188765;28;20730;-58
2023/05/24 06:42:03;;;;;;;0.35;0.28;;;22.40;41.20;;;;;;6179045;28;20074;-58
2023/05/24 06:45:11;;;;;;;0.55;0.20;;;22.40;41.30;;;;;;6177778;28;20574;-57
2023/05/24 06:48:15;;;;;;;0.25;0.20;;;22.30;40.90;;;;;;6170887;28;20069;-63
2023/05/24 06:51:16;;;;;;;0.30;0.20;;;23.30;41.50;;;;;;6162673;28;20061;-60
2023/05/24 06:54:18;;;;;;;0.40;0.30;;;22.40;40.90;;;;;;6167910;28;20705;-59
2023/05/24 06:57:20;;;;;;;;;;;22.40;41.00;;;;;;6148843;28;20814;-60
2023/05/24 07:00:22;;;;;;;0.55;0.32;;;22.30;41.10;;;;;;6117558;28;19964;-60
2023/05/24 07:03:24;;;;;;;0.47;0.30;;;21.50;40.60;;;;;;6136404;28;20050;-58
2023/05/24 07:06:28;;;;;;;0.82;0.38;;;22.10;40.20;;;;;;6150351;28;20042;-63
2023/05/24 07:09:29;;;;;;;;;;;22.30;40.80;;;;;;6128104;28;20027;-64
2023/05/24 07:12:31;;;;;;;0.38;0.30;;;22.40;41.10;;;;;;6132526;28;19952;-61
2023/05/24 07:15:35;;;;;;;1.23;0.52;;;22.30;40.90;;;;;;6109098;28;20034;-61
2023/05/24 07:18:40;;;;;;;0.75;0.40;;;22.30;40.60;;;;;;6131999;28;20038;-59
2023/05/24 07:21:47;;;;;;;0.30;0.28;;;22.60;39.10;;;;;;6207987;23;20097;-88
2023/05/24 07:25:01;;;;;;;1.80;0.40;;;20.40;42.50;;;;;;6171049;28;20046;-87
2023/05/24 07:28:03;;;;;;;0.70;0.38;;;21.10;42.90;;;;;;6157210;23;20049;-52
2023/05/24 07:31:08;;;;;;;0.20;0.20;;;22.30;38.70;;;;;;6159684;28;20042;-50
2023/05/24 07:34:10;;;;;;;0.30;0.30;;;22.80;38.70;;;;;;6152342;28;20034;-50
2023/05/24 07:37:15;;;;;;;0.73;0.40;;;22.40;38.10;;;;;;6153502;28;20073;-60
2023/05/24 07:40:17;;;;;;;0.32;0.20;;;23.70;38.30;;;;;;6155691;28;20030;-61
2023/05/24 07:43:18;;;;;;;0.60;0.30;;;22.70;37.30;;;;;;6188990;28;20042;-56
2023/05/24 07:46:20;;;;;;;0.93;0.57;;;22.70;36.80;;;;;;6186292;28;20042;-52
2023/05/24 07:49:23;;;;;;;0.45;0.30;;;22.70;37.80;;;;;;6217934;28;20058;-57
2023/05/24 07:52:25;;;;;;;0.30;0.30;;;22.90;37.70;;;;;;6174910;28;20061;-55
2023/05/24 07:55:27;;;;;;;0.80;0.20;;;22.80;37.50;;;;;;6182576;28;20297;-53
2023/05/24 07:58:28;;;;;;;0.30;0.30;;;22.90;37.40;;;;;;6152773;28;20038;-56
2023/05/24 08:01:30;;;;;;;;;;;22.80;37.30;;;;;;6151279;28;20654;-57
2023/05/24 08:04:32;;;;;;;0.32;0.20;;;22.80;37.00;;;;;;6157714;28;20255;-56
2023/05/24 08:07:34;;;;;;;0.40;0.20;;;22.50;37.20;;;;;;6157728;28;20726;-54
2023/05/24 08:10:35;;;;;;;0.20;0.20;;;22.90;37.20;;;;;;6170167;28;20756;-53
2023/05/24 08:13:37;;;;;;;0.20;0.20;;;22.80;37.10;;;;;;6170734;28;20042;-53
2023/05/24 08:16:38;;;;;;;;;;;22.80;36.80;;;;;;6171497;28;20108;-55
2023/05/24 08:19:40;;;;;;;0.20;0.20;;;23.20;37.20;;;;;;6159557;28;20631;-52
2023/05/24 08:22:42;;;;;;;0.55;0.40;;;22.90;36.90;;;;;;6174076;28;20752;-53
2023/05/24 08:25:46;;;;;;;0.20;0.20;;;23.00;37.10;;;;;;6166855;28;20482;-52
2023/05/24 08:28:47;;;;;;;0.20;0.20;;;23.00;37.00;;;;;;6169045;28;20067;-53
2023/05/24 08:31:49;;;;;;;;;;;23.10;36.90;;;;;;6153220;28;20054;-54
2023/05/24 08:34:51;;;;;;;1.33;0.30;;;22.60;36.90;;;;;;6169019;28;19928;-52
2023/05/24 08:38:01;;;;;;;0.20;0.20;;;21.40;37.00;;;;;;6148807;28;20766;-55
2023/05/24 08:41:06;;;;;;;0.25;0.25;;;23.00;37.80;;;;;;6168756;28;20039;-52
2023/05/24 08:44:07;;;;;;;0.30;0.28;;;23.00;58.50;;;;;;6160732;28;20077;-55
2023/05/24 08:47:09;;;;;;;0.30;0.20;;;22.50;40.30;;;;;;6135887;28;20087;-52
2023/05/24 08:50:12;;;;;;;0.75;0.30;;;23.20;40.40;;;;;;6148833;28;20039;-54
2023/05/24 08:53:14;;;;;;;0.45;0.28;;;22.70;37.40;;;;;;6143748;28;20664;-52
2023/05/24 08:56:17;;;;;;;0.30;0.20;;;23.10;38.40;;;;;;6159375;28;20728;-50
2023/05/24 08:59:20;;;;;;;0.30;0.30;;;23.20;36.00;;;;;;6160752;28;20030;-51
2023/05/24 09:02:22;;;;;;;0.47;0.30;;;23.20;35.00;;;;;;6166408;28;20034;-54
2023/05/24 09:05:26;;;;;;;0.57;0.30;;;22.90;34.60;;;;;;6148712;28;20038;-50
2023/05/24 09:08:28;;;;;;;0.35;0.30;;;24.20;35.40;;;;;;6142643;28;20046;-55
2023/05/24 09:11:31;;;;;;;0.20;0.20;;;23.20;34.60;;;;;;6160547;28;20030;-52
2023/05/24 09:14:33;;;;;;;0.40;0.40;;;23.10;35.90;;;;;;6133579;28;20035;-53
2023/05/24 09:17:35;;;;;;;0.30;0.20;;;23.10;35.40;;;;;;6139257;28;20130;-51
2023/05/24 09:20:37;;;;;;;0.50;0.30;;;22.90;35.60;;;;;;6123856;28;20042;-56
2023/05/24 09:23:40;;;;;;;0.50;0.25;;;23.30;35.80;;;;;;6122931;28;20041;-55
2023/05/24 09:26:41;;;;;;;0.10;0.10;;;23.10;35.60;;;;;;6165180;28;20068;-53
2023/05/24 09:29:45;;;;;;;0.30;0.20;;;23.30;35.40;;;;;;6171189;28;20046;-51
2023/05/24 09:32:55;;;;;;;0.45;0.30;;;23.20;35.60;;;;;;6163458;28;20119;-52
2023/05/24 09:35:59;;;;;;;0.40;0.17;;;22.90;35.00;;;;;;6165303;28;20058;-55
2023/05/24 09:39:07;;;;;;;0.73;0.30;;;23.00;32.50;;;;;;6176877;28;20492;-49
2023/05/24 09:42:14;;;;;;;0.30;0.28;;;23.20;32.60;;;;;;6165421;28;20116;-53
2023/05/24 09:45:17;;;;;;;0.28;0.20;;;23.20;32.20;;;;;;6158158;28;20089;-50
2023/05/24 09:49:02;;;;;;;0.30;0.25;;;23.10;28.80;;;;;;6438679;27;20293;-48
2023/05/24 09:52:04;;;;;;;0.55;0.32;;;23.10;29.00;;;;;;6410166;27;20045;-52
2023/05/24 09:55:14;;;;;;;0.32;0.20;;;23.20;29.00;;;;;;6405886;27;20086;-54
2023/05/24 09:58:16;;;;;;;0.30;0.30;;;23.20;28.70;;;;;;6388141;27;20042;-48
2023/05/24 10:01:24;;;;;;;0.45;0.40;;;23.20;28.60;;;;;;6389304;27;20030;-50
2023/05/24 10:04:33;;;;;;;0.77;0.30;;;23.30;28.60;;;;;;6404727;27;20758;-50
2023/05/24 10:07:35;;;;;;;0.73;0.40;;;23.30;28.40;;;;;;6385399;27;20766;-51
2023/05/24 10:10:38;;;;;;;0.45;0.40;;;23.30;28.40;;;;;;6401128;27;20035;-51
2023/05/24 10:13:41;;;;;;;0.38;0.30;;;23.30;28.30;;;;;;6413932;27;20026;-48
2023/05/24 10:16:44;;;;;;;0.30;0.20;;;23.30;28.10;;;;;;6404619;27;20121;-53
2023/05/24 10:19:46;;;;;;;0.40;0.22;;;23.30;28.00;;;;;;6376796;27;20027;-55
2023/05/24 10:22:53;;;;;;;0.30;0.20;;;23.30;27.90;;;;;;6392487;27;20034;-47
2023/05/24 10:26:02;;;;;;;0.50;0.40;;;23.30;27.80;;;;;;6399597;27;20030;-56
2023/05/24 10:29:10;;;;;;;0.60;0.40;;;23.30;27.80;;;;;;6388589;27;20022;-52
2023/05/24 10:32:13;;;;;;;0.50;0.30;;;23.30;27.80;;;;;;6429408;27;20056;-51
2023/05/24 10:35:17;;;;;;;0.30;0.22;;;23.40;27.80;;;;;;6445425;27;20087;-50
2023/05/24 10:38:21;;;;;;;0.28;0.20;;;23.40;27.70;;;;;;6436489;27;20041;-52
2023/05/24 10:41:26;;;;;;;0.63;0.30;;;23.40;27.70;;;;;;6436086;22;20032;-44
2023/05/24 10:44:30;;;;;;;0.35;0.25;;;23.40;27.60;;;;;;6285424;28;20573;-52
2023/05/24 10:47:39;;;;;;;0.40;0.30;;;23.40;27.60;;;;;;6266689;28;20049;-51
2023/05/24 10:50:44;;;;;;;0.52;0.32;;;23.50;27.60;;;;;;6299536;28;20044;-50
2023/05/24 10:53:48;;;;;;;0.80;0.60;;;23.50;27.60;;;;;;6273457;28;20040;-49
2023/05/24 10:56:51;;;;;;;1.50;0.80;;;23.50;27.50;;;;;;6293067;28;20041;-50
2023/05/24 10:59:58;;;;;;;1.73;1.00;;;23.50;27.40;;;;;;6295691;28;20074;-49
2023/05/24 11:03:01;;;;;;;1.27;0.70;;;23.50;27.20;;;;;;6283496;28;20044;-52
2023/05/24 11:06:03;;;;;;;1.63;0.70;;;23.50;27.10;;;;;;6253526;28;20046;-51
2023/05/24 11:09:11;;;;;;;1.60;0.88;;;23.50;27.10;;;;;;6284500;28;20718;-49
2023/05/24 11:12:16;;;;;;;1.25;0.95;;;23.50;27.00;;;;;;6287808;28;20048;-51
2023/05/24 11:15:26;;;;;;;1.35;0.80;;;23.50;27.00;;;;;;6278480;28;20049;-52
2023/05/24 11:18:27;;;;;;;2.03;0.90;;;23.40;26.90;;;;;;6266777;28;20025;-51
2023/05/24 11:21:31;;;;;;;1.33;0.82;;;23.40;26.90;;;;;;6282216;28;20032;-51
2023/05/24 11:24:37;;;;;;;3.25;1.00;;;23.40;26.80;;;;;;6282063;28;20040;-50
2023/05/24 11:27:42;;;;;;;2.00;0.82;;;23.40;26.80;;;;;;6285254;28;20095;-51
2023/05/24 11:30:46;;;;;;;2.17;1.00;;;23.30;26.80;;;;;;6284245;28;20040;-49
2023/05/24 11:33:50;;;;;;;3.03;1.00;;;23.40;26.90;;;;;;6268771;28;20660;-51
2023/05/24 11:36:53;;;;;;;1.52;0.80;;;23.30;26.90;;;;;;6291880;28;20033;-50
2023/05/24 11:39:57;;;;;;;1.50;0.80;;;23.30;26.90;;;;;;6298697;28;20040;-51
2023/05/24 11:42:59;;;;;;;1.25;0.82;;;23.40;26.90;;;;;;6272952;28;20094;-50
2023/05/24 11:46:03;;;;;;;1.75;0.90;;;23.40;27.00;;;;;;6261099;28;20036;-51
2023/05/24 11:49:06;;;;;;;1.13;0.63;;;23.40;27.10;;;;;;6256029;28;20047;-52
2023/05/24 11:52:08;;;;;;;1.75;0.90;;;23.50;27.30;;;;;;6270110;28;20086;-51
2023/05/24 11:55:13;;;;;;;1.83;0.73;;;23.50;27.40;;;;;;6243078;28;20029;-54
2023/05/24 11:58:22;;;;;;;1.38;0.80;;;23.40;27.80;;;;;;6287377;28;20041;-51
2023/05/24 12:01:27;;;;;;;1.83;0.85;;;23.50;27.30;;;;;;6319223;22;20112;-89
2023/05/24 12:04:29;;;;;;;0.98;0.55;;;24.70;27.90;;;;;;6293970;28;20434;-88
2023/05/24 12:07:32;;;;;;;1.85;0.65;;;23.00;27.30;;;;;;6311106;28;20179;-89
2023/05/24 12:10:35;;;;;;;2.17;0.90;;;23.70;27.80;;;;;;6320090;28;20337;-90
2023/05/24 12:13:39;;;;;;;2.17;1.05;;;23.80;27.60;;;;;;6299540;28;20182;-92
2023/05/24 12:16:42;;;;;;;1.65;0.73;;;22.90;27.40;;;;;;6341806;28;20047;-92
2023/05/24 12:19:47;;;;;;;2.10;1.00;;;24.10;28.30;;;;;;6351796;28;20044;-89
2023/05/24 12:22:54;;;;;;;2.10;1.02;;;23.50;27.90;;;;;;6344618;28;20063;-90
2023/05/24 12:25:58;;;;;;;1.55;0.80;;;20.90;26.70;;;;;;6322866;28;20044;-90
2023/05/24 12:29:02;;;;;;;2.67;0.90;;;23.60;27.90;;;;;;6337283;28;20044;-89
2023/05/24 12:32:10;;;;;;;1.52;0.82;;;24.10;27.80;;;;;;6317298;28;20260;-90
2023/05/24 12:35:12;;;;;;;2.05;0.77;;;23.40;27.90;;;;;;6324008;28;20154;-90
2023/05/24 12:38:24;;;;;;;1.80;0.80;;;23.80;29.70;;;;;;6322092;28;20289;-90
2023/05/24 12:41:28;;;;;;;1.80;0.60;;;24.80;30.00;;;;;;6340697;28;20043;-90
2023/05/24 12:44:36;;;;;;;1.92;0.68;;;22.30;28.00;;;;;;6343904;28;20641;-90
2023/05/24 12:47:38;;;;;;;1.23;1.05;;;26.60;29.30;;;;;;6319951;28;20039;-90
2023/05/24 12:50:41;;;;;;;2.25;1.17;;;22.70;27.30;;;;;;6329553;28;20067;-90
2023/05/24 12:53:46;;;;;;;1.17;0.60;;;22.80;28.20;;;;;;6337278;28;20063;-90
2023/05/24 12:56:49;;;;;;;1.90;0.60;;;24.40;27.70;;;;;;6338266;28;20067;-89
2023/05/24 12:59:51;;;;;;;0.60;0.50;;;22.40;28.40;;;;;;6329829;28;20096;-90
2023/05/24 13:02:59;;;;;;;0.32;0.30;;;21.70;29.10;;;;;;6321441;28;20530;-91
2023/05/24 13:06:01;;;;;;;0.45;0.40;;;21.90;27.20;;;;;;6290590;28;20642;-90
2023/05/24 13:09:05;;;;;;;0.50;0.40;;;24.40;29.40;;;;;;6326548;28;20070;-89
2023/05/24 13:12:07;;;;;;;0.52;0.32;;;23.90;29.60;;;;;;6315554;28;20293;-90
2023/05/24 13:15:10;;;;;;;0.40;0.30;;;24.00;28.30;;;;;;6321430;28;20787;-89
2023/05/24 13:18:15;;;;;;;0.50;0.32;;;23.50;28.10;;;;;;6323153;28;20074;-90
2023/05/24 13:21:22;;;;;;;0.52;0.40;;;25.00;30.50;;;;;;6331760;28;20055;-90
2023/05/24 13:24:24;;;;;;;0.73;0.50;;;22.40;31.30;;;;;;6320852;28;20144;-90
2023/05/24 13:27:26;;;;;;;0.43;0.40;;;23.70;29.20;;;;;;6324332;28;20183;-89
2023/05/24 13:30:28;;;;;;;0.50;0.50;;;23.80;29.40;;;;;;6327587;28;20908;-89
2023/05/24 13:33:57;;;;;;;0.60;0.50;;;24.70;29.40;;;;;;6338193;28;20055;-90
2023/05/24 13:37:01;;;;;;;0.60;0.50;;;22.00;27.60;;;;;;6289984;28;20052;-90
2023/05/24 13:40:10;;;;;;;1.30;0.50;;;22.70;29.20;;;;;;6332630;28;20042;-90
2023/05/24 13:43:12;;;;;;;0.50;0.43;;;21.40;28.30;;;;;;6327171;28;20039;-89
2023/05/24 13:47:01;;;;;;;0.73;0.50;;;23.70;29.30;;;;;;6340481;28;20036;-91
2023/05/24 13:50:26;;;;;;;0.68;0.43;;;24.30;29.50;;;;;;6333841;28;20043;-91
2023/05/24 13:53:30;;;;;;;1.10;0.52;;;24.50;30.50;;;;;;6331769;28;20048;-90
2023/05/24 13:56:37;;;;;;;0.63;0.50;;;21.00;29.60;;;;;;6307506;28;20078;-90
2023/05/24 13:59:39;;;;;;;0.77;0.40;;;22.00;28.10;;;;;;6325877;28;20044;-89
2023/05/24 14:02:42;;;;;;;1.05;0.60;;;24.10;30.00;;;;;;6301155;28;20099;-90
2023/05/24 14:05:44;;;;;;;0.52;0.47;;;22.40;28.90;;;;;;6321890;28;20046;-89
2023/05/24 14:08:47;;;;;;;2.28;1.13;;;23.70;29.80;;;;;;6314777;28;20094;-90
2023/05/24 14:11:50;;;;;;;2.25;0.70;;;25.70;30.90;;;;;;6350484;28;20038;-89
2023/05/24 14:14:52;;;;;;;0.82;0.60;;;23.50;30.00;;;;;;6351894;28;20059;-90
2023/05/24 14:18:00;;;;;;;0.80;0.60;;;23.60;30.60;;;;;;6344496;22;20048;-56
2023/05/24 14:21:01;;;;;;;0.60;0.50;;;24.50;29.90;;;;;;6282086;28;20036;-54
2023/05/24 14:24:03;;;;;;;1.40;0.88;;;24.00;29.70;;;;;;6269098;28;20044;-58
2023/05/24 14:27:06;;;;;;;0.68;0.45;;;24.00;29.90;;;;;;6265578;28;20028;-49
2023/05/24 14:30:08;;;;;;;2.28;1.00;;;23.40;29.70;;;;;;6282710;28;20691;-54
2023/05/24 14:33:13;;;;;;;2.75;0.77;;;24.30;30.10;;;;;;6279473;28;20032;-53
2023/05/24 14:36:15;;;;;;;1.63;0.60;;;24.40;30.30;;;;;;6270822;28;20034;-51
2023/05/24 14:39:16;;;;;;;1.42;0.68;;;24.40;30.40;;;;;;6278187;28;20037;-54
2023/05/24 14:42:18;;;;;;;0.95;0.80;;;24.40;30.40;;;;;;6284148;28;20040;-50
2023/05/24 14:45:20;;;;;;;2.95;0.80;;;23.90;30.30;;;;;;6276031;28;20052;-56
2023/05/24 14:48:21;;;;;;;1.75;0.90;;;24.40;30.90;;;;;;6283657;28;20047;-53
2023/05/24 14:51:23;;;;;;;2.33;1.00;;;24.40;30.70;;;;;;6284238;28;20121;-47
2023/05/24 14:54:25;;;;;;;1.30;0.98;;;24.50;30.90;;;;;;6283329;28;20036;-54
2023/05/24 14:57:27;;;;;;;2.40;1.25;;;25.30;31.40;;;;;;6253255;28;20039;-51
2023/05/24 15:00:28;;;;;;;2.50;1.40;;;24.60;31.10;;;;;;6275517;28;20088;-52
2023/05/24 15:03:30;;;;;;;1.45;0.82;;;24.50;31.00;;;;;;6279255;28;20704;-48
2023/05/24 15:06:34;;;;;;;1.27;0.80;;;24.40;31.10;;;;;;6278343;28;20028;-50
2023/05/24 15:09:35;;;;;;;1.27;0.77;;;24.50;31.20;;;;;;6288209;28;20039;-49
2023/05/24 15:12:37;;;;;;;1.15;0.60;;;24.50;31.00;;;;;;6283749;28;20035;-54
2023/05/24 15:15:42;;;;;;;1.20;0.70;;;24.30;31.00;;;;;;6284910;28;20039;-54
2023/05/24 15:18:43;;;;;;;0.95;0.60;;;24.50;31.20;;;;;;6288601;28;20063;-55
2023/05/24 15:21:45;;;;;;;0.63;0.52;;;24.60;31.30;;;;;;6290445;28;20715;-57
2023/05/24 15:24:46;;;;;;;0.98;0.60;;;24.60;31.30;;;;;;6268018;28;20742;-49
2023/05/24 15:27:48;;;;;;;0.50;0.32;;;24.50;31.50;;;;;;6248420;28;20040;-53
2023/05/24 15:30:52;;;;;;;2.25;0.70;;;24.60;31.50;;;;;;6257881;28;20039;-54
2023/05/24 15:33:54;;;;;;;0.70;0.50;;;24.40;31.40;;;;;;6248580;28;20043;-58
2023/05/24 15:36:56;;;;;;;0.70;0.50;;;24.50;31.50;;;;;;6273966;28;20028;-53
2023/05/24 15:39:57;;;;;;;0.63;0.50;;;23.90;31.30;;;;;;6287787;28;20551;-53
2023/05/24 15:42:59;;;;;;;0.63;0.25;;;24.60;31.60;;;;;;6296116;28;20138;-52
2023/05/24 15:46:02;;;;;;;0.55;0.40;;;24.50;31.60;;;;;;6289720;28;20047;-51
2023/05/24 15:49:06;;;;;;;0.52;0.40;;;24.60;31.80;;;;;;6291522;28;20997;-52
2023/05/24 15:52:09;;;;;;;0.40;0.40;;;24.70;31.90;;;;;;6291422;28;20760;-51
2023/05/24 15:55:11;;;;;;;0.70;0.40;;;24.40;31.90;;;;;;6286246;28;20555;-54
2023/05/24 15:58:14;;;;;;;0.73;0.60;;;24.50;32.00;;;;;;6293097;28;20048;-53
2023/05/24 16:01:16;;;;;;;0.70;0.45;;;24.40;32.00;;;;;;6291150;28;20763;-51